Terminal Aerodrome Forecast
Issued by NWS

Home | Current Version | Previous Version | Text Only | Print | Product List | Glossary On
Versions: 1 2 3 4 5 6 7 8 9 10 11 12 13 14 15 16 17
000
FTUS43 KMPX 191743
TAFRNH
TAF
KRNH 191743Z 1918/2018 15011G17KT P6SM SCT025
     FM200400 14013G20KT P6SM SCT030 BKN070 WS018/16050KT
     FM201000 16013G20KT 6SM SHRA VCTS BKN030CB
     FM201200 15012G18KT P6SM OVC015=

USA.gov is the U.S. government's official web portal to all federal, state and local government web resources and services.